KBLU

Blue Canyon - Nyack Airport

Emigrant Gap, California, USA
METAR KBLU 171752Z AUTO 26005KT 10SM CLR 16/M07 A3026 RMK AO2 SLP185 T01611067 10161 20106 50003
Observed Flight Rules
Oct-17 @ 17:52 UTC (27 minutes ago) Visual Flight Rules
Wind Visibility Clouds
260° at 5 knots 10 miles
  • Clear skies
Temperatures Readings
Current 16°C / 61°F
Dewpoint -7°C / 19°F
Humidity 20%
Altimeter 30.26" Hg
Pressure 1018.5 hPa
Elevation 1609
METAR KBLU 171752Z AUTO 26005KT 10SM CLR 16/M07 A3026 RMK AO2 SLP185 T01611067 10161 20106 50003
Observed Flight Rules
Oct-17 @ 17:52 UTC
(27 minutes ago)
VFR
Wind Visibility
260° at 5 knots 10 miles
Clouds
  • Clear skies
Temperature Dewpoint
16°C / 61°F -7°C / 19°F
Humidity Altimeter Pressure
20% 30.26" Hg 1018.5 hPa